Time;durP1;ratioP1;P1;durP2;ratioP2;P2;SDS_P1;SDS_P2;PMS_P1;PMS_P2;Temp;Humidity;BMP_temperature;BMP_pressure;BME280_temperature;BME280_humidity;BME280_pressure;Samples;Min_cycle;Max_cycle;Signal;HPM_P1;HPM_P2
2023/02/16 00:00:03;;;;;;;5.72;2.10;;;25.70;54.90;;;;;;4102564;28;20054;-75
2023/02/16 00:02:25;;;;;;;5.38;1.90;;;25.80;55.40;;;;;;4122730;28;20456;-71
2023/02/16 00:04:48;;;;;;;4.18;1.83;;;25.80;55.40;;;;;;4124967;28;20101;-68
2023/02/16 00:07:10;;;;;;;35.47;4.57;;;25.80;55.90;;;;;;4126152;28;20065;-68
2023/02/16 00:09:33;;;;;;;15.35;3.10;;;25.90;56.00;;;;;;4130465;28;20479;-69
2023/02/16 00:14:38;;;;;;;10.75;2.35;;;26.00;54.60;;;;;;4125556;28;20046;-73
2023/02/16 00:17:01;;;;;;;12.30;2.58;;;26.10;55.30;;;;;;4129456;28;20034;-75
2023/02/16 00:19:26;;;;;;;9.05;2.30;;;26.10;55.60;;;;;;4124015;28;20555;-72
2023/02/16 00:21:52;;;;;;;9.98;2.47;;;26.10;55.90;;;;;;4105835;28;20481;-75
2023/02/16 00:24:15;;;;;;;11.48;2.25;;;26.10;56.20;;;;;;4134004;28;20460;-74
2023/02/16 00:26:37;;;;;;;8.18;1.92;;;26.20;56.50;;;;;;4121570;28;20038;-75
2023/02/16 00:29:00;;;;;;;7.13;2.47;;;26.30;56.70;;;;;;4125451;28;20044;-73
2023/02/16 00:31:33;;;;;;;8.03;1.97;;;26.30;56.70;;;;;;4124856;28;20070;-76
2023/02/16 00:33:55;;;;;;;5.50;2.00;;;26.40;56.90;;;;;;4126602;28;20399;-77
2023/02/16 00:36:18;;;;;;;16.45;1.90;;;26.40;57.10;;;;;;4122895;28;20129;-77
2023/02/16 00:38:41;;;;;;;5.88;1.70;;;26.50;57.20;;;;;;4122321;28;20038;-74
2023/02/16 00:41:03;;;;;;;5.87;1.70;;;26.50;57.40;;;;;;4126458;28;20133;-75
2023/02/16 00:43:29;;;;;;;5.90;1.30;;;26.60;57.50;;;;;;4122900;28;21072;-72
2023/02/16 00:45:55;;;;;;;2.80;1.35;;;26.60;57.60;;;;;;4125021;28;20049;-73
2023/02/16 00:48:17;;;;;;;2.72;1.27;;;26.70;57.70;;;;;;4124426;28;20377;-72
2023/02/16 00:50:40;;;;;;;6.05;1.50;;;26.70;57.70;;;;;;4107703;28;20042;-76
2023/02/16 00:53:02;;;;;;;3.50;0.90;;;26.80;57.90;;;;;;4112343;28;20038;-73
2023/02/16 00:55:28;;;;;;;4.15;1.05;;;26.80;57.90;;;;;;4119222;28;20039;-72
2023/02/16 00:57:54;;;;;;;2.95;0.90;;;26.80;57.80;;;;;;4110734;28;20034;-73
2023/02/16 01:00:24;;;;;;;2.28;0.90;;;26.90;57.70;;;;;;4128205;28;20530;-73
2023/02/16 01:02:50;;;;;;;2.53;0.82;;;26.90;57.50;;;;;;4123057;28;20730;-75
2023/02/16 01:05:15;;;;;;;3.15;0.75;;;27.00;57.40;;;;;;4128735;28;20035;-74
2023/02/16 01:13:01;;;;;;;2.40;0.80;;;27.00;56.90;;;;;;4131322;28;20126;-74
2023/02/16 01:15:25;;;;;;;2.33;0.82;;;27.10;56.90;;;;;;4129736;28;20491;-73
2023/02/16 01:17:50;;;;;;;1.67;0.80;;;27.10;56.80;;;;;;4126308;28;20412;-73
2023/02/16 01:20:21;;;;;;;1.40;0.60;;;27.10;56.70;;;;;;4131502;28;20522;-71
2023/02/16 01:22:44;;;;;;;2.70;0.95;;;27.10;56.70;;;;;;4113389;28;20038;-71
2023/02/16 01:25:07;;;;;;;1.27;0.60;;;27.20;56.70;;;;;;4109911;28;20129;-72
2023/02/16 01:27:30;;;;;;;0.80;0.70;;;27.20;56.70;;;;;;4122967;28;20042;-72
2023/02/16 01:29:52;;;;;;;0.52;0.40;;;27.20;56.60;;;;;;4124543;28;20038;-73
2023/02/16 01:32:15;;;;;;;2.15;0.70;;;27.20;56.60;;;;;;4121717;28;20148;-72
2023/02/16 01:34:38;;;;;;;1.83;0.82;;;27.30;56.60;;;;;;4110539;28;20049;-71
2023/02/16 01:37:00;;;;;;;1.75;0.80;;;27.30;56.50;;;;;;4130448;28;20728;-74
2023/02/16 01:39:23;;;;;;;1.17;0.57;;;27.30;56.50;;;;;;4128445;28;20038;-72
2023/02/16 01:42:09;;;;;;;6.50;0.80;;;27.30;56.50;;;;;;4124613;28;20056;-74
2023/02/16 01:44:45;;;;;;;1.58;0.82;;;27.30;56.90;;;;;;4124306;28;20415;-73
2023/02/16 01:47:16;;;;;;;1.88;1.00;;;27.20;55.00;;;;;;4122856;28;20046;-72
2023/02/16 01:49:39;;;;;;;2.03;1.17;;;27.00;53.90;;;;;;4128310;28;20166;-74
2023/02/16 01:52:21;;;;;;;1.30;1.00;;;26.80;53.30;;;;;;4128514;28;20061;-71
2023/02/16 01:55:11;;;;;;;1.42;1.02;;;26.60;53.10;;;;;;4116378;28;20051;-73
2023/02/16 01:57:39;;;;;;;2.28;1.20;;;26.30;53.50;;;;;;4121629;28;20062;-73
2023/02/16 02:00:09;;;;;;;2.97;1.13;;;26.10;53.00;;;;;;4125828;28;20396;-72
2023/02/16 02:02:48;;;;;;;1.95;1.30;;;26.00;53.30;;;;;;4125389;28;20463;-68
2023/02/16 02:05:38;;;;;;;3.30;1.08;;;25.80;53.10;;;;;;4125498;28;20045;-69
2023/02/16 02:08:29;;;;;;;2.97;1.08;;;25.70;53.10;;;;;;4130432;28;20070;-69
2023/02/16 02:11:01;;;;;;;1.70;1.15;;;25.60;52.90;;;;;;4109634;28;20134;-70
2023/02/16 02:13:46;;;;;;;2.70;1.52;;;25.40;53.20;;;;;;4128447;28;20045;-71
2023/02/16 02:16:10;;;;;;;2.75;1.45;;;25.30;53.20;;;;;;4127382;28;20038;-74
2023/02/16 02:18:32;;;;;;;;;;;25.20;53.50;;;;;;4126355;28;20042;-71
2023/02/16 02:24:05;;;;;;;3.05;1.50;;;25.00;54.20;;;;;;4119968;28;20555;-71
2023/02/16 02:26:49;;;;;;;1.92;1.23;;;24.90;54.10;;;;;;4127667;28;20042;-71
2023/02/16 02:29:17;;;;;;;2.25;1.33;;;24.80;54.20;;;;;;4128474;28;20046;-72
2023/02/16 02:31:49;;;;;;;1.30;1.02;;;24.70;54.40;;;;;;4104939;28;20822;-72
2023/02/16 02:34:20;;;;;;;3.65;1.50;;;24.60;54.60;;;;;;4126121;28;20033;-74
2023/02/16 02:37:32;;;;;;;2.47;1.00;;;24.50;54.80;;;;;;4121560;28;20038;-73
2023/02/16 02:40:04;;;;;;;1.27;1.00;;;24.40;55.30;;;;;;4103475;28;20042;-73
2023/02/16 02:42:55;;;;;;;2.08;1.27;;;24.30;54.90;;;;;;4122420;28;20538;-73
2023/02/16 02:45:24;;;;;;;6.30;1.70;;;24.20;55.30;;;;;;4126374;28;20526;-75
2023/02/16 02:47:50;;;;;;;2.72;1.67;;;24.20;54.90;;;;;;4127788;28;20117;-76
2023/02/16 02:50:36;;;;;;;2.50;1.70;;;24.00;55.00;;;;;;4127912;28;20050;-78
2023/02/16 02:53:02;;;;;;;1.90;1.40;;;24.00;55.80;;;;;;4126962;28;20057;-72
2023/02/16 03:00:53;;;;;;;2.42;1.40;;;23.80;56.00;;;;;;4123244;28;20058;-80
2023/02/16 03:03:39;;;;;;;1.70;1.17;;;23.70;55.90;;;;;;4124015;28;20042;-79
2023/02/16 03:06:09;;;;;;;2.17;1.33;;;23.60;56.10;;;;;;4129180;28;20647;-74
2023/02/16 03:08:38;;;;;;;3.13;1.48;;;23.60;56.10;;;;;;4127206;28;20065;-73
2023/02/16 03:13:55;;;;;;;3.53;1.50;;;23.50;56.50;;;;;;4124827;28;20101;-73
2023/02/16 03:16:28;;;;;;;2.28;1.27;;;23.40;56.60;;;;;;4113739;28;20038;-77
2023/02/16 03:29:43;;;;;;;2.08;1.20;;;23.20;56.70;;;;;;4124504;28;20180;-74
2023/02/16 03:32:06;;;;;;;1.88;1.30;;;23.10;56.70;;;;;;4123588;28;20049;-74
2023/02/16 03:34:30;;;;;;;2.38;1.40;;;23.10;56.90;;;;;;4112332;28;20080;-77
2023/02/16 03:36:59;;;;;;;2.17;1.30;;;23.00;57.10;;;;;;4127219;28;21546;-73
2023/02/16 03:39:22;;;;;;;3.13;1.42;;;23.00;57.00;;;;;;4119880;28;20039;-73
2023/02/16 03:41:53;;;;;;;2.20;1.40;;;22.90;56.90;;;;;;4118504;28;20046;-74
2023/02/16 03:44:16;;;;;;;1.98;1.20;;;22.80;57.10;;;;;;4112115;28;20291;-72
2023/02/16 03:46:38;;;;;;;2.40;1.35;;;22.80;57.20;;;;;;4119915;28;20582;-75
2023/02/16 03:49:01;;;;;;;1.70;1.27;;;22.80;57.50;;;;;;4106157;28;20184;-73
2023/02/16 03:51:29;;;;;;;1.40;1.00;;;22.70;57.50;;;;;;4123745;28;20063;-74
2023/02/16 03:53:51;;;;;;;1.45;1.23;;;22.70;57.50;;;;;;4114438;28;20046;-72
2023/02/16 03:56:17;;;;;;;1.98;1.20;;;22.60;57.40;;;;;;4125122;28;20068;-75
2023/02/16 03:58:39;;;;;;;1.80;1.20;;;22.60;57.20;;;;;;4108355;28;20050;-76
2023/02/16 04:01:02;;;;;;;2.03;1.40;;;22.60;57.70;;;;;;4106674;28;20501;-73
2023/02/16 04:03:25;;;;;;;1.45;1.20;;;22.50;57.70;;;;;;4112719;28;20118;-74
2023/02/16 04:05:47;;;;;;;2.75;1.70;;;22.50;57.70;;;;;;4104028;28;20042;-74
2023/02/16 04:08:11;;;;;;;3.10;1.38;;;22.40;57.70;;;;;;4128093;28;20073;-74
2023/02/16 04:10:33;;;;;;;2.28;1.38;;;22.40;57.80;;;;;;4126755;28;20042;-68
2023/02/16 04:12:55;;;;;;;1.48;1.10;;;22.40;58.00;;;;;;4118955;28;20041;-75
2023/02/16 04:15:21;;;;;;;2.35;1.27;;;22.30;57.90;;;;;;4124415;28;20038;-73
2023/02/16 04:17:44;;;;;;;1.67;1.30;;;22.30;58.00;;;;;;4123495;28;20038;-73
2023/02/16 04:20:09;;;;;;;2.55;1.27;;;22.20;58.00;;;;;;4106644;28;20077;-73
2023/02/16 04:22:31;;;;;;;1.65;1.20;;;22.20;58.00;;;;;;4126907;28;20030;-74
2023/02/16 04:24:54;;;;;;;1.95;1.20;;;22.20;58.20;;;;;;4111693;28;20038;-76
2023/02/16 04:27:16;;;;;;;2.15;1.35;;;22.20;58.20;;;;;;4119097;28;20112;-82
2023/02/16 04:29:39;;;;;;;9.77;2.20;;;22.10;58.10;;;;;;4127414;28;20041;-80
2023/02/16 04:32:01;;;;;;;9.38;1.80;;;22.10;59.00;;;;;;4124966;28;20050;-83
2023/02/16 04:34:24;;;;;;;18.63;1.83;;;22.30;60.60;;;;;;4123461;28;20466;-80
2023/02/16 04:36:46;;;;;;;6.05;1.75;;;22.40;61.30;;;;;;4121062;28;20038;-79
2023/02/16 04:39:12;;;;;;;4.78;2.20;;;22.70;61.40;;;;;;4119990;28;20038;-81
2023/02/16 04:41:34;;;;;;;3.95;1.88;;;22.90;61.00;;;;;;4105914;28;20062;-71
2023/02/16 04:43:56;;;;;;;2.95;1.40;;;23.20;61.30;;;;;;4120440;28;20189;-75
2023/02/16 04:46:19;;;;;;;3.72;1.48;;;23.30;61.50;;;;;;4116912;28;20042;-70
2023/02/16 04:48:41;;;;;;;3.20;1.23;;;23.60;61.50;;;;;;4120793;28;20039;-72
2023/02/16 04:51:07;;;;;;;2.67;1.00;;;23.70;61.30;;;;;;4121736;28;20133;-72
2023/02/16 04:53:29;;;;;;;3.13;1.58;;;23.90;61.50;;;;;;4123077;28;20084;-75
2023/02/16 04:55:52;;;;;;;5.80;1.60;;;24.20;61.70;;;;;;4120622;28;20052;-72
2023/02/16 04:58:16;;;;;;;3.40;2.00;;;24.40;61.60;;;;;;4124644;28;20093;-75
2023/02/16 05:00:40;;;;;;;;;;;24.50;61.50;;;;;;4120235;28;20137;-71
2023/02/16 05:03:03;;;;;;;2.95;1.90;;;24.40;59.00;;;;;;4120958;28;19925;-75
2023/02/16 05:05:25;;;;;;;2.40;1.90;;;24.20;58.40;;;;;;4125120;28;20261;-77
2023/02/16 05:07:48;;;;;;;2.72;1.63;;;24.00;57.20;;;;;;4117119;28;20062;-74
2023/02/16 05:10:10;;;;;;;2.22;1.65;;;23.80;57.00;;;;;;4123373;28;20049;-71
2023/02/16 05:16:02;;;;;;;3.63;1.98;;;23.60;57.10;;;;;;4135625;28;20061;-42
2023/02/16 05:18:25;;;;;;;2.88;1.55;;;23.50;56.90;;;;;;4137396;28;20081;-39
2023/02/16 05:23:27;;;;;;;2.42;1.52;;;23.30;56.80;;;;;;4136580;28;20092;-40
2023/02/16 05:25:50;;;;;;;3.92;1.58;;;23.20;56.70;;;;;;4138483;28;20046;-38
2023/02/16 05:28:12;;;;;;;3.40;1.38;;;23.20;56.90;;;;;;4136634;28;20080;-38
2023/02/16 05:30:35;;;;;;;3.25;1.58;;;23.10;56.80;;;;;;4122245;28;20617;-41
2023/02/16 05:32:57;;;;;;;3.10;1.42;;;23.10;56.90;;;;;;4131457;28;20114;-38
2023/02/16 05:35:19;;;;;;;2.90;1.70;;;23.00;57.00;;;;;;4135007;28;20509;-40
2023/02/16 05:37:42;;;;;;;2.38;1.38;;;23.00;56.90;;;;;;4137373;28;20040;-43
2023/02/16 05:40:05;;;;;;;2.90;1.40;;;23.00;56.90;;;;;;4136899;28;20073;-39
2023/02/16 05:42:28;;;;;;;1.67;1.30;;;23.00;57.10;;;;;;4134401;28;20766;-38
2023/02/16 05:44:51;;;;;;;2.75;1.38;;;22.90;57.00;;;;;;4136473;28;20048;-38
2023/02/16 05:47:13;;;;;;;2.95;1.50;;;22.90;57.20;;;;;;4133365;28;20041;-40
2023/02/16 05:49:35;;;;;;;2.03;1.48;;;22.90;57.20;;;;;;4132755;28;20117;-39
2023/02/16 05:51:58;;;;;;;2.25;1.58;;;22.90;57.10;;;;;;4133243;28;20076;-41
2023/02/16 05:54:20;;;;;;;5.40;2.00;;;22.80;56.90;;;;;;4136984;28;20044;-40
2023/02/16 05:56:48;;;;;;;4.10;1.88;;;22.80;56.90;;;;;;4134435;28;20034;-39
2023/02/16 05:59:11;;;;;;;2.55;1.20;;;22.80;56.80;;;;;;4133687;28;20110;-39
2023/02/16 06:01:33;;;;;;;2.88;1.50;;;22.80;56.80;;;;;;4136584;28;20042;-41
2023/02/16 06:03:56;;;;;;;2.88;1.40;;;22.80;56.60;;;;;;4130916;28;20467;-37
2023/02/16 06:06:18;;;;;;;2.30;1.27;;;22.80;56.60;;;;;;4138467;28;20318;-40
2023/02/16 06:08:41;;;;;;;2.60;1.58;;;22.70;56.70;;;;;;4143688;28;20042;-38
2023/02/16 06:11:34;;;;;;;2.58;1.52;;;22.70;56.90;;;;;;4140084;28;20041;-38
2023/02/16 06:13:49;;;;;;;1.83;1.10;;;22.60;57.00;;;;;;4142578;28;20116;-37
2023/02/16 06:16:11;;;;;;;2.15;1.30;;;22.60;56.70;;;;;;4160123;23;20045;-49
2023/02/16 06:18:34;;;;;;;2.95;1.20;;;22.60;56.90;;;;;;4132172;28;20565;-48
2023/02/16 06:20:57;;;;;;;3.05;1.20;;;22.60;56.90;;;;;;4148402;28;20099;-49
2023/02/16 06:23:19;;;;;;;1.42;1.00;;;22.60;56.90;;;;;;4149162;28;20036;-53
2023/02/16 06:25:43;;;;;;;2.47;1.40;;;22.60;57.20;;;;;;4150675;28;20049;-48
2023/02/16 06:28:06;;;;;;;2.22;1.15;;;22.60;57.10;;;;;;4151836;28;20247;-53
2023/02/16 06:30:28;;;;;;;1.85;1.15;;;22.60;56.70;;;;;;4149703;28;20044;-49
2023/02/16 06:32:51;;;;;;;1.73;1.02;;;22.60;56.40;;;;;;4130299;28;20041;-53
2023/02/16 06:35:13;;;;;;;1.67;0.80;;;22.60;56.40;;;;;;4145692;28;20046;-53
2023/02/16 06:37:36;;;;;;;2.08;1.10;;;22.50;56.20;;;;;;4151012;28;20068;-54
2023/02/16 06:39:58;;;;;;;2.22;1.02;;;22.50;56.10;;;;;;4147962;28;20088;-47
2023/02/16 06:42:20;;;;;;;1.85;1.25;;;22.50;56.20;;;;;;4147318;28;20534;-56
2023/02/16 06:44:50;;;;;;;1.48;1.00;;;22.50;56.10;;;;;;4149849;28;20494;-57
2023/02/16 10:59:23;;;;;;;0.40;0.38;;;25.40;60.10;;;;;;2443693;26;20141;-47
2023/02/16 11:01:48;;;;;;;0.88;0.30;;;25.40;60.20;;;;;;4121564;28;20124;-48
2023/02/16 11:04:31;;;;;;;4.43;1.45;;;25.40;60.20;;;;;;4100117;28;20043;-45
2023/02/16 11:07:20;;;;;;;5.25;1.33;;;25.50;61.30;;;;;;4105895;28;20065;-43
2023/02/16 11:09:46;;;;;;;4.82;1.52;;;25.60;62.00;;;;;;4104810;28;20039;-48
2023/02/16 11:12:27;;;;;;;7.43;1.95;;;25.60;62.60;;;;;;4099067;28;20394;-41
2023/02/16 11:14:53;;;;;;;7.53;1.70;;;25.70;62.80;;;;;;4083948;28;20451;-47
2023/02/16 11:17:17;;;;;;;7.22;1.73;;;25.70;62.90;;;;;;4093629;28;20038;-42
2023/02/16 11:20:04;;;;;;;7.10;1.88;;;25.80;63.10;;;;;;4098972;28;20184;-43
2023/02/16 11:22:28;;;;;;;7.57;1.48;;;25.80;63.20;;;;;;4098281;28;20043;-47
2023/02/16 11:24:50;;;;;;;6.25;1.55;;;25.80;62.60;;;;;;4096533;28;20038;-43
2023/02/16 11:27:13;;;;;;;5.45;1.27;;;25.80;62.60;;;;;;4093751;28;20109;-43
2023/02/16 11:29:35;;;;;;;7.90;1.70;;;25.80;62.60;;;;;;4096768;28;20034;-40
2023/02/16 11:31:59;;;;;;;2.90;0.90;;;25.80;62.50;;;;;;4100061;28;20546;-40
2023/02/16 11:34:39;;;;;;;9.63;1.40;;;25.80;62.50;;;;;;4098731;28;20130;-41
2023/02/16 11:37:12;;;;;;;5.95;1.15;;;25.80;62.50;;;;;;4096454;28;20051;-39
2023/02/16 11:39:39;;;;;;;6.82;1.02;;;25.80;62.40;;;;;;4097218;28;20109;-40
2023/02/16 11:42:19;;;;;;;3.95;0.93;;;25.90;62.50;;;;;;4096601;28;20141;-42
2023/02/16 11:44:50;;;;;;;6.15;1.08;;;25.90;62.50;;;;;;4099485;28;20531;-43
2023/02/16 11:47:39;;;;;;;4.25;0.95;;;25.90;62.60;;;;;;4100884;28;20046;-41
2023/02/16 11:50:22;;;;;;;3.95;0.90;;;25.90;62.60;;;;;;4101190;28;20109;-43
2023/02/16 11:52:50;;;;;;;5.80;1.30;;;26.00;62.50;;;;;;4099962;28;20512;-40
2023/02/16 11:55:40;;;;;;;1.85;0.73;;;26.00;62.50;;;;;;4103863;28;20136;-39
2023/02/16 11:58:26;;;;;;;5.95;0.85;;;26.00;62.40;;;;;;4093916;28;20113;-41
2023/02/16 12:01:10;;;;;;;4.88;0.90;;;26.10;62.50;;;;;;4094288;28;20520;-43
2023/02/16 12:03:58;;;;;;;2.55;0.80;;;26.10;62.50;;;;;;4099353;28;20042;-39
2023/02/16 12:06:58;;;;;;;2.05;0.60;;;26.10;62.30;;;;;;4097074;28;20531;-41
2023/02/16 12:09:29;;;;;;;2.40;0.80;;;26.10;62.30;;;;;;4100966;28;20038;-38
2023/02/16 12:12:18;;;;;;;3.22;0.90;;;26.20;62.30;;;;;;4097414;28;20045;-41
2023/02/16 12:14:41;;;;;;;2.05;0.77;;;26.20;62.30;;;;;;4097058;28;20053;-41
2023/02/16 12:17:22;;;;;;;9.32;1.10;;;26.20;62.20;;;;;;4099441;28;20162;-43
2023/02/16 12:19:45;;;;;;;5.55;1.08;;;26.20;62.30;;;;;;4099533;28;20654;-40
2023/02/16 12:22:39;;;;;;;3.75;0.80;;;26.20;62.10;;;;;;4099443;28;20117;-45
2023/02/16 12:25:36;;;;;;;3.20;0.55;;;26.20;62.10;;;;;;4100084;28;20546;-48
2023/02/16 12:28:19;;;;;;;3.50;0.80;;;26.20;62.10;;;;;;4097416;28;20516;-41
2023/02/16 12:30:59;;;;;;;1.73;0.50;;;26.20;62.10;;;;;;4102902;28;20058;-42
2023/02/16 12:33:25;;;;;;;1.58;0.30;;;26.30;62.20;;;;;;4100213;28;20125;-41
2023/02/16 12:36:02;;;;;;;2.05;0.60;;;26.30;62.20;;;;;;4103052;28;20050;-39
2023/02/16 12:38:58;;;;;;;1.98;0.60;;;26.30;62.20;;;;;;4103164;28;20511;-40
2023/02/16 12:41:29;;;;;;;1.38;0.60;;;26.30;62.20;;;;;;4099049;28;20051;-41
2023/02/16 12:44:00;;;;;;;1.58;0.45;;;26.30;62.20;;;;;;4101528;28;20521;-45
2023/02/16 12:46:46;;;;;;;2.28;0.55;;;26.30;62.20;;;;;;4099977;28;20070;-42
2023/02/16 12:49:26;;;;;;;0.50;0.40;;;26.30;62.20;;;;;;4101711;28;20049;-42
2023/02/16 12:52:03;;;;;;;0.82;0.40;;;26.30;62.20;;;;;;4099386;28;20138;-49
2023/02/16 12:54:40;;;;;;;2.47;0.32;;;26.40;62.30;;;;;;4099848;28;20491;-39
2023/02/16 12:57:22;;;;;;;1.92;0.50;;;26.40;62.20;;;;;;4103119;28;20089;-47
2023/02/16 12:59:56;;;;;;;0.93;0.30;;;26.40;62.20;;;;;;4094967;28;20127;-38
2023/02/16 13:02:39;;;;;;;0.60;0.32;;;26.40;62.20;;;;;;4100834;28;20051;-40
2023/02/16 13:05:33;;;;;;;1.55;0.73;;;26.40;62.20;;;;;;4104418;28;20046;-40
2023/02/16 13:08:17;;;;;;;2.47;0.70;;;26.40;62.20;;;;;;4099227;28;20054;-40
2023/02/16 13:10:57;;;;;;;1.92;0.50;;;26.40;62.20;;;;;;4095393;28;20052;-44
2023/02/16 13:13:25;;;;;;;0.93;0.47;;;26.40;62.30;;;;;;4101571;28;20071;-44
2023/02/16 13:16:18;;;;;;;1.08;0.40;;;26.50;62.40;;;;;;4095597;28;20031;-39
2023/02/16 13:18:44;;;;;;;3.07;0.40;;;26.50;62.40;;;;;;4100425;28;20035;-41
2023/02/16 13:21:14;;;;;;;2.42;0.50;;;26.50;62.40;;;;;;4104928;28;20112;-39
2023/02/16 13:23:57;;;;;;;1.45;0.70;;;26.50;62.40;;;;;;4101580;28;20031;-45
2023/02/16 13:26:38;;;;;;;2.47;0.57;;;26.50;62.40;;;;;;4094904;28;20082;-44
2023/02/16 13:29:22;;;;;;;1.05;0.65;;;26.50;62.50;;;;;;4101079;28;20043;-47
2023/02/16 13:32:15;;;;;;;2.03;0.53;;;26.60;62.50;;;;;;4101259;28;20062;-40
2023/02/16 13:35:18;;;;;;;1.52;0.60;;;26.60;62.40;;;;;;4103631;28;20043;-43
2023/02/16 13:37:55;;;;;;;2.42;0.47;;;26.60;62.40;;;;;;4105249;28;20512;-41
2023/02/16 13:40:55;;;;;;;1.52;0.60;;;26.60;62.40;;;;;;4106044;28;20674;-40
2023/02/16 13:43:32;;;;;;;1.35;0.47;;;26.60;62.40;;;;;;4039369;29;20048;-45
2023/02/16 13:45:55;;;;;;;0.93;0.32;;;26.60;62.40;;;;;;4105411;28;20070;-43
2023/02/16 13:48:36;;;;;;;1.75;0.43;;;26.60;62.30;;;;;;4100569;28;20121;-41
2023/02/16 13:51:11;;;;;;;3.15;0.75;;;26.60;62.30;;;;;;4102015;28;20178;-40
2023/02/16 13:53:38;;;;;;;1.23;0.50;;;26.60;62.40;;;;;;4105493;28;20093;-40
2023/02/16 13:56:20;;;;;;;1.98;0.50;;;26.60;62.40;;;;;;4102843;28;20043;-42
2023/02/16 13:58:43;;;;;;;3.08;0.50;;;26.60;62.40;;;;;;4081905;28;20632;-42
2023/02/16 14:01:38;;;;;;;1.48;0.60;;;26.60;62.40;;;;;;4101658;28;20542;-42
2023/02/16 14:04:02;;;;;;;1.38;0.55;;;26.70;62.40;;;;;;4105223;28;20038;-43
2023/02/16 14:06:35;;;;;;;2.08;0.40;;;26.70;62.40;;;;;;4101241;28;20047;-38
2023/02/16 14:09:15;;;;;;;2.10;0.50;;;26.70;62.50;;;;;;4101714;28;20042;-40
2023/02/16 14:11:56;;;;;;;2.22;0.60;;;26.70;62.40;;;;;;4105491;28;20058;-39
2023/02/16 14:14:33;;;;;;;1.05;0.47;;;26.70;62.40;;;;;;4100280;28;20046;-44
2023/02/16 14:17:14;;;;;;;3.72;0.82;;;26.70;62.50;;;;;;4091412;28;20603;-40
2023/02/16 14:19:37;;;;;;;4.75;0.98;;;26.70;62.50;;;;;;4109489;28;20050;-41
2023/02/16 14:22:10;;;;;;;5.80;0.55;;;26.70;62.50;;;;;;4104082;28;20055;-43
2023/02/16 14:24:37;;;;;;;0.85;0.40;;;26.70;62.50;;;;;;4103611;28;20467;-41
2023/02/16 14:27:02;;;;;;;1.52;0.63;;;26.70;62.40;;;;;;4104071;28;20149;-42
2023/02/16 14:30:02;;;;;;;1.52;0.45;;;26.70;62.30;;;;;;4098892;28;20496;-41
2023/02/16 14:32:37;;;;;;;3.05;0.47;;;26.70;62.20;;;;;;4070885;28;20039;-39
2023/02/16 14:35:18;;;;;;;2.42;0.65;;;26.70;62.30;;;;;;4104444;28;20053;-39
2023/02/16 14:38:01;;;;;;;2.05;0.70;;;26.70;62.40;;;;;;4105344;28;20082;-40
2023/02/16 14:40:42;;;;;;;1.13;0.52;;;26.80;62.40;;;;;;4106062;28;20045;-40
2023/02/16 14:43:25;;;;;;;0.70;0.57;;;26.80;62.50;;;;;;4104185;28;20089;-40
2023/02/16 14:45:56;;;;;;;1.42;0.70;;;26.70;62.40;;;;;;4100490;28;20049;-40
2023/02/16 14:48:24;;;;;;;2.75;0.63;;;26.80;62.50;;;;;;4103127;28;20959;-41
2023/02/16 14:51:23;;;;;;;2.28;0.70;;;26.80;62.50;;;;;;4087107;28;20170;-41
2023/02/16 14:53:49;;;;;;;2.03;0.57;;;26.80;62.40;;;;;;4105724;28;20042;-43
2023/02/16 14:56:32;;;;;;;3.63;0.55;;;26.80;62.40;;;;;;4088029;28;20054;-41
2023/02/16 14:59:04;;;;;;;1.48;0.65;;;26.80;62.40;;;;;;4088649;28;20059;-41
2023/02/16 15:01:27;;;;;;;1.60;0.70;;;26.80;62.40;;;;;;4095208;28;20548;-39
2023/02/16 15:03:53;;;;;;;2.65;0.50;;;26.80;62.40;;;;;;4099367;28;20062;-40
2023/02/16 15:06:34;;;;;;;1.33;0.55;;;26.80;62.40;;;;;;4099452;28;20505;-40
2023/02/16 15:08:59;;;;;;;1.35;0.60;;;26.80;62.40;;;;;;4094625;28;20532;-46
2023/02/16 15:12:20;;;;;;;1.48;0.65;;;26.80;62.30;;;;;;4105107;28;20133;-42
2023/02/16 15:14:19;;;;;;;0.85;0.47;;;26.80;61.90;;;;;;4103657;28;20054;-46
2023/02/16 15:16:41;;;;;;;;;;;26.80;62.30;;;;;;4092372;28;20437;-43
2023/02/16 15:19:16;;;;;;;1.05;0.40;;;26.80;62.30;;;;;;4090635;28;19921;-46
2023/02/16 15:21:39;;;;;;;1.73;0.52;;;26.80;62.30;;;;;;4099145;28;20046;-48
2023/02/16 15:24:01;;;;;;;1.38;0.40;;;26.80;62.30;;;;;;4099272;28;20052;-47
2023/02/16 15:26:35;;;;;;;1.80;0.70;;;26.80;62.30;;;;;;4101619;28;20164;-44
2023/02/16 15:29:12;;;;;;;2.70;0.68;;;26.80;62.30;;;;;;4107093;28;20060;-43
2023/02/16 15:31:36;;;;;;;1.55;0.60;;;26.80;62.40;;;;;;4104683;28;20063;-39
2023/02/16 15:34:06;;;;;;;3.05;0.60;;;26.80;62.30;;;;;;4098582;28;20039;-41
2023/02/16 15:36:36;;;;;;;2.42;0.65;;;26.80;62.40;;;;;;4106436;28;20157;-41
2023/02/16 15:39:02;;;;;;;1.40;0.63;;;26.80;62.80;;;;;;4104248;28;20050;-41
2023/02/16 15:41:31;;;;;;;2.88;0.60;;;26.80;62.40;;;;;;4097490;28;20114;-39
2023/02/16 15:43:54;;;;;;;2.20;0.55;;;26.80;62.40;;;;;;4104882;28;20532;-40
2023/02/16 15:46:51;;;;;;;1.00;0.43;;;26.80;62.30;;;;;;4091607;28;20054;-40
2023/02/16 15:49:29;;;;;;;1.80;0.43;;;26.80;62.30;;;;;;4090064;28;20536;-42
2023/02/16 15:51:53;;;;;;;1.80;0.80;;;26.80;62.30;;;;;;4105403;28;20043;-45
2023/02/16 15:54:23;;;;;;;0.73;0.50;;;26.80;62.20;;;;;;4104524;28;20121;-43
2023/02/16 15:56:48;;;;;;;2.25;0.55;;;26.80;62.30;;;;;;4104082;28;20429;-41
2023/02/16 15:59:42;;;;;;;1.85;0.73;;;26.80;62.20;;;;;;4100030;28;20141;-40
2023/02/16 16:02:17;;;;;;;0.77;0.47;;;26.80;62.20;;;;;;4100616;28;20059;-41
2023/02/16 16:04:42;;;;;;;1.38;0.35;;;26.80;62.20;;;;;;4101920;28;20038;-43
2023/02/16 16:07:07;;;;;;;1.65;0.47;;;26.80;62.30;;;;;;4103003;28;20346;-41
2023/02/16 16:09:31;;;;;;;0.68;0.30;;;26.80;62.40;;;;;;4102705;28;20050;-41
2023/02/16 16:12:01;;;;;;;4.05;0.90;;;26.80;62.00;;;;;;4104406;28;20038;-41
2023/02/16 16:14:24;;;;;;;1.65;0.70;;;26.80;62.40;;;;;;4077762;28;20035;-41
2023/02/16 16:16:47;;;;;;;2.20;0.60;;;26.80;62.50;;;;;;4092775;28;20038;-41
2023/02/16 16:19:23;;;;;;;6.60;0.98;;;26.80;62.40;;;;;;4102708;28;20042;-42
2023/02/16 16:21:53;;;;;;;0.88;0.40;;;26.80;62.40;;;;;;4087690;28;20197;-40
2023/02/16 16:24:32;;;;;;;1.02;0.47;;;26.80;62.40;;;;;;4100741;28;20035;-41
2023/02/16 16:26:57;;;;;;;1.38;0.52;;;26.80;62.30;;;;;;4099913;28;20441;-43
2023/02/16 16:29:46;;;;;;;1.45;0.70;;;26.80;62.30;;;;;;4099432;28;20042;-44
2023/02/16 16:32:22;;;;;;;1.15;0.45;;;26.80;62.30;;;;;;4093719;28;21014;-40
2023/02/16 16:34:44;;;;;;;1.30;0.40;;;26.80;62.30;;;;;;4104067;28;20066;-40
2023/02/16 16:37:32;;;;;;;1.20;0.40;;;26.80;62.30;;;;;;4105520;28;20065;-39
2023/02/16 16:40:21;;;;;;;0.82;0.43;;;26.80;62.90;;;;;;4099693;28;20412;-40
2023/02/16 16:43:03;;;;;;;5.55;0.75;;;26.80;62.30;;;;;;4101112;28;20477;-40
2023/02/16 16:45:43;;;;;;;0.47;0.45;;;26.80;62.40;;;;;;4104758;28;20049;-43
2023/02/16 16:48:20;;;;;;;2.08;0.45;;;26.80;62.40;;;;;;4107622;28;20043;-42
2023/02/16 16:50:43;;;;;;;2.00;0.60;;;26.80;62.40;;;;;;4104267;28;20050;-42
2023/02/16 16:53:43;;;;;;;1.83;0.52;;;26.80;62.40;;;;;;4097411;28;20105;-41
2023/02/16 16:56:11;;;;;;;0.70;0.40;;;26.80;62.40;;;;;;4099959;28;20045;-44
2023/02/16 16:58:33;;;;;;;0.52;0.43;;;26.80;62.40;;;;;;4085220;28;20059;-40
2023/02/16 17:00:56;;;;;;;2.63;0.43;;;26.80;62.30;;;;;;4092933;28;20532;-41
2023/02/16 17:03:19;;;;;;;1.25;0.60;;;26.80;62.40;;;;;;4104656;28;20089;-40
2023/02/16 17:05:42;;;;;;;0.45;0.40;;;26.80;62.40;;;;;;4104473;28;20091;-41
2023/02/16 17:08:05;;;;;;;1.92;0.50;;;26.80;62.40;;;;;;4102823;28;20039;-42
2023/02/16 17:10:28;;;;;;;3.47;0.80;;;26.80;62.40;;;;;;4104944;28;20047;-42
2023/02/16 17:12:57;;;;;;;1.23;0.50;;;26.80;62.40;;;;;;4100448;28;20055;-41
2023/02/16 17:15:31;;;;;;;2.38;0.47;;;26.80;62.40;;;;;;4108437;28;20035;-47
2023/02/16 17:17:54;;;;;;;1.92;0.43;;;26.80;62.40;;;;;;4103364;28;20078;-41
2023/02/16 17:20:16;;;;;;;1.58;0.50;;;26.80;62.40;;;;;;4103868;28;20112;-44
2023/02/16 17:22:39;;;;;;;0.85;0.40;;;26.70;62.30;;;;;;4105655;28;20484;-43
2023/02/16 17:25:01;;;;;;;2.38;0.68;;;26.80;62.40;;;;;;4104983;28;20074;-42
2023/02/16 17:27:24;;;;;;;3.03;0.88;;;26.70;62.40;;;;;;4100989;28;20047;-40
2023/02/16 17:29:49;;;;;;;1.30;0.52;;;26.70;62.40;;;;;;4108267;28;20043;-40
2023/02/16 17:32:11;;;;;;;2.55;0.40;;;26.70;62.30;;;;;;4107836;28;20541;-39
2023/02/16 17:34:34;;;;;;;2.50;0.50;;;26.70;62.30;;;;;;4103506;28;20046;-41
2023/02/16 17:37:01;;;;;;;1.25;0.52;;;26.70;62.30;;;;;;4107959;28;20732;-39
2023/02/16 17:39:24;;;;;;;2.13;0.60;;;26.70;62.30;;;;;;4103704;28;20038;-40
2023/02/16 17:41:47;;;;;;;0.87;0.50;;;26.70;62.40;;;;;;4097257;28;20524;-39
2023/02/16 17:44:09;;;;;;;2.13;0.60;;;26.70;62.40;;;;;;4102282;28;20090;-40
2023/02/16 17:46:32;;;;;;;1.45;0.50;;;26.70;62.40;;;;;;4083081;28;20054;-39
2023/02/16 17:48:54;;;;;;;1.65;0.57;;;26.60;62.40;;;;;;4097480;28;20055;-42
2023/02/16 17:51:19;;;;;;;0.63;0.40;;;26.60;62.40;;;;;;4102889;28;20046;-39